sensor_id;sensor_type;location;lat;lon;timestamp;P1;durP1;ratioP1;P2;durP2;ratioP2
36315;SDS011;22343;50.820;2.666;2024-01-11T00:00:38;25.97;;;15.23;;
36315;SDS011;22343;50.820;2.666;2024-01-11T00:03:23;27.03;;;15.30;;
36315;SDS011;22343;50.820;2.666;2024-01-11T00:06:09;27.70;;;14.60;;
36315;SDS011;22343;50.820;2.666;2024-01-11T00:08:57;27.33;;;16.00;;
36315;SDS011;22343;50.820;2.666;2024-01-11T00:11:43;25.57;;;14.97;;
36315;SDS011;22343;50.820;2.666;2024-01-11T00:14:28;27.53;;;15.63;;
36315;SDS011;22343;50.820;2.666;2024-01-11T00:17:13;24.67;;;15.03;;
36315;SDS011;22343;50.820;2.666;2024-01-11T00:19:59;25.93;;;15.10;;
36315;SDS011;22343;50.820;2.666;2024-01-11T00:22:46;27.53;;;15.80;;
36315;SDS011;22343;50.820;2.666;2024-01-11T00:25:32;28.47;;;15.50;;
36315;SDS011;22343;50.820;2.666;2024-01-11T00:28:18;26.50;;;16.00;;
36315;SDS011;22343;50.820;2.666;2024-01-11T00:31:02;25.10;;;14.50;;
36315;SDS011;22343;50.820;2.666;2024-01-11T00:33:48;34.30;;;17.57;;
36315;SDS011;22343;50.820;2.666;2024-01-11T00:36:34;38.33;;;20.20;;
36315;SDS011;22343;50.820;2.666;2024-01-11T00:39:19;33.83;;;18.80;;
36315;SDS011;22343;50.820;2.666;2024-01-11T00:42:05;37.97;;;19.97;;
36315;SDS011;22343;50.820;2.666;2024-01-11T00:44:49;28.63;;;15.67;;
36315;SDS011;22343;50.820;2.666;2024-01-11T00:47:35;27.57;;;15.93;;
36315;SDS011;22343;50.820;2.666;2024-01-11T00:50:20;27.00;;;15.37;;
36315;SDS011;22343;50.820;2.666;2024-01-11T00:53:05;28.20;;;14.50;;
36315;SDS011;22343;50.820;2.666;2024-01-11T00:55:51;29.37;;;15.83;;
36315;SDS011;22343;50.820;2.666;2024-01-11T00:58:38;28.03;;;16.53;;
36315;SDS011;22343;50.820;2.666;2024-01-11T01:01:25;29.87;;;16.73;;
36315;SDS011;22343;50.820;2.666;2024-01-11T01:04:11;27.77;;;15.70;;
36315;SDS011;22343;50.820;2.666;2024-01-11T01:06:58;30.70;;;15.53;;
36315;SDS011;22343;50.820;2.666;2024-01-11T01:09:43;28.47;;;16.03;;
36315;SDS011;22343;50.820;2.666;2024-01-11T01:12:28;28.17;;;15.67;;
36315;SDS011;22343;50.820;2.666;2024-01-11T01:15:14;27.23;;;15.40;;
36315;SDS011;22343;50.820;2.666;2024-01-11T01:17:58;29.20;;;16.37;;
36315;SDS011;22343;50.820;2.666;2024-01-11T01:20:48;29.00;;;16.20;;
36315;SDS011;22343;50.820;2.666;2024-01-11T01:23:34;27.10;;;15.70;;
36315;SDS011;22343;50.820;2.666;2024-01-11T01:26:20;24.50;;;15.40;;
36315;SDS011;22343;50.820;2.666;2024-01-11T01:29:05;28.73;;;15.93;;
36315;SDS011;22343;50.820;2.666;2024-01-11T01:31:51;29.90;;;15.97;;
36315;SDS011;22343;50.820;2.666;2024-01-11T01:34:37;28.67;;;15.83;;
36315;SDS011;22343;50.820;2.666;2024-01-11T01:37:25;28.47;;;15.17;;
36315;SDS011;22343;50.820;2.666;2024-01-11T01:40:11;28.37;;;15.67;;
36315;SDS011;22343;50.820;2.666;2024-01-11T01:43:00;38.40;;;20.93;;
36315;SDS011;22343;50.820;2.666;2024-01-11T01:45:45;34.00;;;19.63;;
36315;SDS011;22343;50.820;2.666;2024-01-11T01:48:32;34.43;;;18.33;;
36315;SDS011;22343;50.820;2.666;2024-01-11T01:51:20;25.80;;;14.93;;
36315;SDS011;22343;50.820;2.666;2024-01-11T01:54:08;25.80;;;15.73;;
36315;SDS011;22343;50.820;2.666;2024-01-11T01:56:54;27.57;;;15.57;;
36315;SDS011;22343;50.820;2.666;2024-01-11T01:59:39;26.03;;;15.20;;
36315;SDS011;22343;50.820;2.666;2024-01-11T02:02:25;30.53;;;16.03;;
36315;SDS011;22343;50.820;2.666;2024-01-11T02:05:12;27.83;;;15.63;;
36315;SDS011;22343;50.820;2.666;2024-01-11T02:07:58;27.63;;;15.83;;
36315;SDS011;22343;50.820;2.666;2024-01-11T02:10:46;27.57;;;15.57;;
36315;SDS011;22343;50.820;2.666;2024-01-11T02:13:33;28.60;;;15.50;;
36315;SDS011;22343;50.820;2.666;2024-01-11T02:16:20;26.97;;;15.50;;
36315;SDS011;22343;50.820;2.666;2024-01-11T02:19:05;25.87;;;15.47;;
36315;SDS011;22343;50.820;2.666;2024-01-11T02:21:52;29.93;;;15.77;;
36315;SDS011;22343;50.820;2.666;2024-01-11T02:24:40;29.97;;;14.73;;
36315;SDS011;22343;50.820;2.666;2024-01-11T02:27:25;27.40;;;15.30;;
36315;SDS011;22343;50.820;2.666;2024-01-11T02:30:14;28.73;;;16.00;;
36315;SDS011;22343;50.820;2.666;2024-01-11T02:33:00;26.67;;;15.17;;
36315;SDS011;22343;50.820;2.666;2024-01-11T02:35:45;28.43;;;15.30;;
36315;SDS011;22343;50.820;2.666;2024-01-11T02:38:32;30.90;;;15.83;;
36315;SDS011;22343;50.820;2.666;2024-01-11T02:41:20;28.93;;;15.67;;
36315;SDS011;22343;50.820;2.666;2024-01-11T02:44:05;30.13;;;16.03;;
36315;SDS011;22343;50.820;2.666;2024-01-11T02:46:51;29.93;;;15.90;;
36315;SDS011;22343;50.820;2.666;2024-01-11T02:49:37;27.73;;;15.30;;
36315;SDS011;22343;50.820;2.666;2024-01-11T02:52:26;24.13;;;14.67;;
36315;SDS011;22343;50.820;2.666;2024-01-11T02:55:12;28.73;;;16.70;;
36315;SDS011;22343;50.820;2.666;2024-01-11T02:57:58;28.83;;;16.13;;
36315;SDS011;22343;50.820;2.666;2024-01-11T03:00:43;29.27;;;16.37;;
36315;SDS011;22343;50.820;2.666;2024-01-11T03:03:28;33.67;;;17.57;;
36315;SDS011;22343;50.820;2.666;2024-01-11T03:06:14;41.13;;;21.57;;
36315;SDS011;22343;50.820;2.666;2024-01-11T03:09:03;27.77;;;16.60;;
36315;SDS011;22343;50.820;2.666;2024-01-11T03:11:49;27.07;;;16.50;;
36315;SDS011;22343;50.820;2.666;2024-01-11T03:14:35;30.03;;;16.60;;
36315;SDS011;22343;50.820;2.666;2024-01-11T03:17:23;29.47;;;16.80;;
36315;SDS011;22343;50.820;2.666;2024-01-11T03:20:09;37.97;;;19.83;;
36315;SDS011;22343;50.820;2.666;2024-01-11T03:22:54;28.00;;;16.10;;
36315;SDS011;22343;50.820;2.666;2024-01-11T03:25:39;30.50;;;15.53;;
36315;SDS011;22343;50.820;2.666;2024-01-11T03:28:28;28.93;;;16.20;;
36315;SDS011;22343;50.820;2.666;2024-01-11T03:31:14;31.70;;;16.47;;
36315;SDS011;22343;50.820;2.666;2024-01-11T03:33:59;27.60;;;15.10;;
36315;SDS011;22343;50.820;2.666;2024-01-11T03:36:45;30.87;;;16.53;;
36315;SDS011;22343;50.820;2.666;2024-01-11T03:39:31;28.53;;;16.00;;
36315;SDS011;22343;50.820;2.666;2024-01-11T03:42:15;26.67;;;15.33;;
36315;SDS011;22343;50.820;2.666;2024-01-11T03:45:00;27.23;;;15.83;;
36315;SDS011;22343;50.820;2.666;2024-01-11T03:47:46;28.60;;;16.33;;
36315;SDS011;22343;50.820;2.666;2024-01-11T03:50:32;26.83;;;15.77;;
36315;SDS011;22343;50.820;2.666;2024-01-11T03:53:16;28.50;;;15.67;;
36315;SDS011;22343;50.820;2.666;2024-01-11T03:56:01;27.93;;;15.30;;
36315;SDS011;22343;50.820;2.666;2024-01-11T03:58:50;30.33;;;16.00;;
36315;SDS011;22343;50.820;2.666;2024-01-11T04:01:41;28.00;;;15.97;;
36315;SDS011;22343;50.820;2.666;2024-01-11T04:04:27;28.30;;;15.70;;
36315;SDS011;22343;50.820;2.666;2024-01-11T04:07:12;28.33;;;16.27;;
36315;SDS011;22343;50.820;2.666;2024-01-11T04:09:58;28.93;;;15.97;;
36315;SDS011;22343;50.820;2.666;2024-01-11T04:12:44;28.13;;;15.53;;
36315;SDS011;22343;50.820;2.666;2024-01-11T04:15:30;27.73;;;15.60;;
36315;SDS011;22343;50.820;2.666;2024-01-11T04:18:17;29.27;;;16.07;;
36315;SDS011;22343;50.820;2.666;2024-01-11T04:21:02;28.63;;;16.40;;
36315;SDS011;22343;50.820;2.666;2024-01-11T04:23:49;27.90;;;16.17;;
36315;SDS011;22343;50.820;2.666;2024-01-11T04:26:36;28.27;;;15.90;;
36315;SDS011;22343;50.820;2.666;2024-01-11T04:29:20;30.27;;;15.90;;
36315;SDS011;22343;50.820;2.666;2024-01-11T04:32:06;28.67;;;15.73;;
36315;SDS011;22343;50.820;2.666;2024-01-11T04:34:51;28.97;;;16.30;;
36315;SDS011;22343;50.820;2.666;2024-01-11T04:37:36;34.17;;;17.53;;
36315;SDS011;22343;50.820;2.666;2024-01-11T04:40:22;32.33;;;17.47;;
36315;SDS011;22343;50.820;2.666;2024-01-11T04:43:09;27.40;;;16.50;;
36315;SDS011;22343;50.820;2.666;2024-01-11T04:45:54;31.43;;;16.67;;
36315;SDS011;22343;50.820;2.666;2024-01-11T04:48:40;34.03;;;16.90;;
36315;SDS011;22343;50.820;2.666;2024-01-11T04:51:26;32.20;;;16.57;;
36315;SDS011;22343;50.820;2.666;2024-01-11T04:54:12;29.23;;;16.37;;
36315;SDS011;22343;50.820;2.666;2024-01-11T04:56:57;27.00;;;15.87;;
36315;SDS011;22343;50.820;2.666;2024-01-11T04:59:43;32.17;;;17.10;;
36315;SDS011;22343;50.820;2.666;2024-01-11T05:02:28;28.83;;;15.93;;
36315;SDS011;22343;50.820;2.666;2024-01-11T05:05:12;28.70;;;15.30;;
36315;SDS011;22343;50.820;2.666;2024-01-11T05:07:56;29.13;;;16.50;;
36315;SDS011;22343;50.820;2.666;2024-01-11T05:10:42;30.30;;;17.07;;
36315;SDS011;22343;50.820;2.666;2024-01-11T05:13:30;31.90;;;17.03;;
36315;SDS011;22343;50.820;2.666;2024-01-11T05:16:18;30.83;;;17.53;;
36315;SDS011;22343;50.820;2.666;2024-01-11T05:19:24;30.87;;;18.17;;
36315;SDS011;22343;50.820;2.666;2024-01-11T05:22:10;29.20;;;17.53;;
36315;SDS011;22343;50.820;2.666;2024-01-11T05:24:56;32.73;;;18.63;;
36315;SDS011;22343;50.820;2.666;2024-01-11T05:27:40;30.53;;;17.90;;
36315;SDS011;22343;50.820;2.666;2024-01-11T05:30:26;33.73;;;17.97;;
36315;SDS011;22343;50.820;2.666;2024-01-11T05:33:12;32.10;;;17.70;;
36315;SDS011;22343;50.820;2.666;2024-01-11T05:35:58;30.20;;;17.57;;
36315;SDS011;22343;50.820;2.666;2024-01-11T05:38:44;28.57;;;17.13;;
36315;SDS011;22343;50.820;2.666;2024-01-11T05:41:33;27.73;;;16.60;;
36315;SDS011;22343;50.820;2.666;2024-01-11T05:44:19;30.70;;;16.33;;
36315;SDS011;22343;50.820;2.666;2024-01-11T05:47:05;26.40;;;14.50;;
36315;SDS011;22343;50.820;2.666;2024-01-11T05:49:50;27.70;;;15.13;;
36315;SDS011;22343;50.820;2.666;2024-01-11T05:52:35;25.50;;;15.53;;
36315;SDS011;22343;50.820;2.666;2024-01-11T05:55:21;27.27;;;15.23;;
36315;SDS011;22343;50.820;2.666;2024-01-11T05:58:06;27.67;;;15.90;;
36315;SDS011;22343;50.820;2.666;2024-01-11T06:00:52;26.57;;;14.80;;
36315;SDS011;22343;50.820;2.666;2024-01-11T06:03:42;27.07;;;16.20;;
36315;SDS011;22343;50.820;2.666;2024-01-11T06:06:28;28.13;;;15.57;;
36315;SDS011;22343;50.820;2.666;2024-01-11T06:09:12;24.33;;;14.87;;
36315;SDS011;22343;50.820;2.666;2024-01-11T06:11:56;26.87;;;15.27;;
36315;SDS011;22343;50.820;2.666;2024-01-11T06:14:41;26.23;;;15.53;;
36315;SDS011;22343;50.820;2.666;2024-01-11T06:17:27;28.83;;;15.23;;
36315;SDS011;22343;50.820;2.666;2024-01-11T06:20:12;27.77;;;14.40;;
36315;SDS011;22343;50.820;2.666;2024-01-11T06:22:58;25.80;;;15.47;;
36315;SDS011;22343;50.820;2.666;2024-01-11T06:25:42;31.67;;;16.63;;
36315;SDS011;22343;50.820;2.666;2024-01-11T06:28:31;27.87;;;16.13;;
36315;SDS011;22343;50.820;2.666;2024-01-11T06:31:17;31.23;;;15.73;;
36315;SDS011;22343;50.820;2.666;2024-01-11T06:34:04;29.90;;;16.30;;
36315;SDS011;22343;50.820;2.666;2024-01-11T06:36:49;29.40;;;16.00;;
36315;SDS011;22343;50.820;2.666;2024-01-11T06:39:35;26.87;;;16.03;;
36315;SDS011;22343;50.820;2.666;2024-01-11T06:42:21;33.20;;;19.33;;
36315;SDS011;22343;50.820;2.666;2024-01-11T06:45:06;30.57;;;18.57;;
36315;SDS011;22343;50.820;2.666;2024-01-11T06:47:52;33.33;;;18.67;;
36315;SDS011;22343;50.820;2.666;2024-01-11T06:50:39;30.10;;;17.33;;
36315;SDS011;22343;50.820;2.666;2024-01-11T06:53:25;31.87;;;17.10;;
36315;SDS011;22343;50.820;2.666;2024-01-11T06:56:15;29.60;;;16.07;;
36315;SDS011;22343;50.820;2.666;2024-01-11T06:59:05;28.30;;;16.30;;
36315;SDS011;22343;50.820;2.666;2024-01-11T07:01:53;28.77;;;15.90;;
36315;SDS011;22343;50.820;2.666;2024-01-11T07:04:43;30.70;;;15.83;;
36315;SDS011;22343;50.820;2.666;2024-01-11T07:07:30;29.17;;;16.67;;
36315;SDS011;22343;50.820;2.666;2024-01-11T07:10:18;31.27;;;17.03;;
36315;SDS011;22343;50.820;2.666;2024-01-11T07:13:03;28.17;;;16.47;;
36315;SDS011;22343;50.820;2.666;2024-01-11T07:15:48;31.50;;;17.07;;
36315;SDS011;22343;50.820;2.666;2024-01-11T07:18:33;33.40;;;20.27;;
36315;SDS011;22343;50.820;2.666;2024-01-11T07:21:22;39.07;;;20.67;;
36315;SDS011;22343;50.820;2.666;2024-01-11T07:24:14;32.53;;;19.03;;
36315;SDS011;22343;50.820;2.666;2024-01-11T07:27:01;33.67;;;19.10;;
36315;SDS011;22343;50.820;2.666;2024-01-11T07:29:46;34.83;;;19.33;;
36315;SDS011;22343;50.820;2.666;2024-01-11T07:32:31;33.23;;;19.30;;
36315;SDS011;22343;50.820;2.666;2024-01-11T07:35:16;33.87;;;20.23;;
36315;SDS011;22343;50.820;2.666;2024-01-11T07:38:00;41.37;;;22.77;;
36315;SDS011;22343;50.820;2.666;2024-01-11T07:40:45;38.23;;;22.93;;
36315;SDS011;22343;50.820;2.666;2024-01-11T07:43:31;37.10;;;22.37;;
36315;SDS011;22343;50.820;2.666;2024-01-11T07:46:20;37.30;;;23.40;;
36315;SDS011;22343;50.820;2.666;2024-01-11T07:49:06;36.60;;;20.77;;
36315;SDS011;22343;50.820;2.666;2024-01-11T07:51:53;33.43;;;18.80;;
36315;SDS011;22343;50.820;2.666;2024-01-11T07:54:41;29.93;;;17.00;;
36315;SDS011;22343;50.820;2.666;2024-01-11T07:57:27;32.47;;;17.03;;
36315;SDS011;22343;50.820;2.666;2024-01-11T08:00:13;33.60;;;17.13;;
36315;SDS011;22343;50.820;2.666;2024-01-11T08:02:59;28.00;;;15.97;;
36315;SDS011;22343;50.820;2.666;2024-01-11T08:05:45;32.07;;;17.23;;
36315;SDS011;22343;50.820;2.666;2024-01-11T08:08:31;27.13;;;16.77;;
36315;SDS011;22343;50.820;2.666;2024-01-11T08:11:18;30.60;;;18.00;;
36315;SDS011;22343;50.820;2.666;2024-01-11T08:14:04;40.53;;;27.07;;
36315;SDS011;22343;50.820;2.666;2024-01-11T08:16:51;60.73;;;36.53;;
36315;SDS011;22343;50.820;2.666;2024-01-11T08:19:39;33.90;;;18.57;;
36315;SDS011;22343;50.820;2.666;2024-01-11T08:22:24;34.20;;;18.53;;
36315;SDS011;22343;50.820;2.666;2024-01-11T08:25:14;39.07;;;20.73;;
36315;SDS011;22343;50.820;2.666;2024-01-11T08:28:00;32.67;;;20.03;;
36315;SDS011;22343;50.820;2.666;2024-01-11T08:30:49;31.93;;;19.23;;
36315;SDS011;22343;50.820;2.666;2024-01-11T08:33:34;32.10;;;19.07;;
36315;SDS011;22343;50.820;2.666;2024-01-11T08:36:21;32.83;;;18.80;;
36315;SDS011;22343;50.820;2.666;2024-01-11T08:39:10;44.03;;;24.00;;
36315;SDS011;22343;50.820;2.666;2024-01-11T08:41:57;48.53;;;30.13;;
36315;SDS011;22343;50.820;2.666;2024-01-11T08:44:43;40.40;;;25.43;;
36315;SDS011;22343;50.820;2.666;2024-01-11T08:47:30;37.97;;;23.00;;
36315;SDS011;22343;50.820;2.666;2024-01-11T08:50:15;36.37;;;20.77;;
36315;SDS011;22343;50.820;2.666;2024-01-11T08:53:01;53.10;;;28.43;;
36315;SDS011;22343;50.820;2.666;2024-01-11T08:55:47;49.33;;;27.00;;
36315;SDS011;22343;50.820;2.666;2024-01-11T08:58:33;48.10;;;27.23;;
36315;SDS011;22343;50.820;2.666;2024-01-11T09:01:19;35.70;;;21.07;;
36315;SDS011;22343;50.820;2.666;2024-01-11T09:04:06;36.47;;;19.80;;
36315;SDS011;22343;50.820;2.666;2024-01-11T09:06:54;38.63;;;21.13;;
36315;SDS011;22343;50.820;2.666;2024-01-11T09:09:42;29.63;;;17.53;;
36315;SDS011;22343;50.820;2.666;2024-01-11T09:12:28;32.03;;;18.07;;
36315;SDS011;22343;50.820;2.666;2024-01-11T09:15:14;32.03;;;18.93;;
36315;SDS011;22343;50.820;2.666;2024-01-11T09:18:00;52.80;;;27.80;;
36315;SDS011;22343;50.820;2.666;2024-01-11T09:20:45;31.83;;;16.93;;
36315;SDS011;22343;50.820;2.666;2024-01-11T09:23:31;29.17;;;17.13;;
36315;SDS011;22343;50.820;2.666;2024-01-11T09:26:16;32.37;;;17.87;;
36315;SDS011;22343;50.820;2.666;2024-01-11T09:29:02;26.50;;;13.73;;
36315;SDS011;22343;50.820;2.666;2024-01-11T09:31:48;30.53;;;16.57;;
36315;SDS011;22343;50.820;2.666;2024-01-11T09:34:34;30.03;;;16.63;;
36315;SDS011;22343;50.820;2.666;2024-01-11T09:37:21;25.30;;;14.17;;
36315;SDS011;22343;50.820;2.666;2024-01-11T09:40:07;30.57;;;18.20;;
36315;SDS011;22343;50.820;2.666;2024-01-11T09:42:57;33.00;;;17.77;;
36315;SDS011;22343;50.820;2.666;2024-01-11T09:45:42;31.33;;;18.13;;
36315;SDS011;22343;50.820;2.666;2024-01-11T09:48:28;27.77;;;15.37;;
36315;SDS011;22343;50.820;2.666;2024-01-11T09:51:15;30.30;;;16.90;;
36315;SDS011;22343;50.820;2.666;2024-01-11T09:54:02;21.50;;;9.70;;
36315;SDS011;22343;50.820;2.666;2024-01-11T09:56:47;32.07;;;15.73;;
36315;SDS011;22343;50.820;2.666;2024-01-11T09:59:37;21.73;;;12.77;;
36315;SDS011;22343;50.820;2.666;2024-01-11T10:02:24;31.63;;;17.80;;
36315;SDS011;22343;50.820;2.666;2024-01-11T10:05:11;27.77;;;15.83;;
36315;SDS011;22343;50.820;2.666;2024-01-11T10:07:58;31.20;;;16.93;;
36315;SDS011;22343;50.820;2.666;2024-01-11T10:10:43;30.67;;;16.30;;
36315;SDS011;22343;50.820;2.666;2024-01-11T10:13:28;30.30;;;17.30;;
36315;SDS011;22343;50.820;2.666;2024-01-11T10:16:15;27.97;;;17.43;;
36315;SDS011;22343;50.820;2.666;2024-01-11T10:19:01;28.63;;;16.37;;
36315;SDS011;22343;50.820;2.666;2024-01-11T10:21:47;34.70;;;17.33;;
36315;SDS011;22343;50.820;2.666;2024-01-11T10:24:32;31.33;;;16.80;;
36315;SDS011;22343;50.820;2.666;2024-01-11T10:27:23;25.67;;;12.27;;
36315;SDS011;22343;50.820;2.666;2024-01-11T10:30:12;27.27;;;13.93;;
36315;SDS011;22343;50.820;2.666;2024-01-11T10:33:01;23.53;;;13.60;;
36315;SDS011;22343;50.820;2.666;2024-01-11T10:35:47;23.10;;;11.93;;
36315;SDS011;22343;50.820;2.666;2024-01-11T10:38:39;26.50;;;16.00;;
36315;SDS011;22343;50.820;2.666;2024-01-11T10:41:24;31.83;;;17.70;;
36315;SDS011;22343;50.820;2.666;2024-01-11T10:44:13;24.27;;;13.17;;
36315;SDS011;22343;50.820;2.666;2024-01-11T10:47:19;19.93;;;9.47;;
36315;SDS011;22343;50.820;2.666;2024-01-11T10:50:07;23.57;;;13.07;;
36315;SDS011;22343;50.820;2.666;2024-01-11T10:56:22;20.47;;;11.17;;
36315;SDS011;22343;50.820;2.666;2024-01-11T10:59:08;32.27;;;15.77;;
36315;SDS011;22343;50.820;2.666;2024-01-11T11:01:55;29.80;;;15.27;;
36315;SDS011;22343;50.820;2.666;2024-01-11T11:04:44;19.80;;;10.63;;
36315;SDS011;22343;50.820;2.666;2024-01-11T11:07:30;21.37;;;12.03;;
36315;SDS011;22343;50.820;2.666;2024-01-11T11:10:21;20.83;;;10.57;;
36315;SDS011;22343;50.820;2.666;2024-01-11T11:13:08;23.40;;;13.97;;
36315;SDS011;22343;50.820;2.666;2024-01-11T11:15:56;27.00;;;15.03;;
36315;SDS011;22343;50.820;2.666;2024-01-11T11:18:43;20.90;;;12.37;;
36315;SDS011;22343;50.820;2.666;2024-01-11T11:21:27;25.03;;;14.10;;
36315;SDS011;22343;50.820;2.666;2024-01-11T11:24:14;14.43;;;8.83;;
36315;SDS011;22343;50.820;2.666;2024-01-11T11:27:02;22.00;;;11.00;;
36315;SDS011;22343;50.820;2.666;2024-01-11T11:29:49;28.87;;;15.90;;
36315;SDS011;22343;50.820;2.666;2024-01-11T11:32:36;22.57;;;12.30;;
36315;SDS011;22343;50.820;2.666;2024-01-11T11:35:23;24.10;;;15.17;;
36315;SDS011;22343;50.820;2.666;2024-01-11T11:38:08;25.50;;;13.77;;
36315;SDS011;22343;50.820;2.666;2024-01-11T11:41:09;19.83;;;11.17;;
36315;SDS011;22343;50.820;2.666;2024-01-11T11:44:00;18.67;;;8.90;;
36315;SDS011;22343;50.820;2.666;2024-01-11T11:46:49;19.67;;;11.63;;
36315;SDS011;22343;50.820;2.666;2024-01-11T11:52:41;23.40;;;12.97;;
36315;SDS011;22343;50.820;2.666;2024-01-11T11:55:29;19.17;;;11.83;;
36315;SDS011;22343;50.820;2.666;2024-01-11T11:58:16;21.47;;;12.43;;
36315;SDS011;22343;50.820;2.666;2024-01-11T12:01:03;19.30;;;10.63;;
36315;SDS011;22343;50.820;2.666;2024-01-11T12:03:49;25.80;;;14.87;;
36315;SDS011;22343;50.820;2.666;2024-01-11T12:06:35;22.53;;;13.07;;
36315;SDS011;22343;50.820;2.666;2024-01-11T12:09:19;24.50;;;14.17;;
36315;SDS011;22343;50.820;2.666;2024-01-11T12:12:08;25.63;;;13.87;;
36315;SDS011;22343;50.820;2.666;2024-01-11T12:14:53;24.63;;;14.17;;
36315;SDS011;22343;50.820;2.666;2024-01-11T12:17:39;28.03;;;14.83;;
36315;SDS011;22343;50.820;2.666;2024-01-11T12:20:28;22.87;;;13.00;;
36315;SDS011;22343;50.820;2.666;2024-01-11T12:23:14;23.80;;;14.00;;
36315;SDS011;22343;50.820;2.666;2024-01-11T12:26:06;11.27;;;8.17;;
36315;SDS011;22343;50.820;2.666;2024-01-11T12:29:01;21.80;;;12.90;;
36315;SDS011;22343;50.820;2.666;2024-01-11T12:31:46;21.63;;;12.50;;
36315;SDS011;22343;50.820;2.666;2024-01-11T12:34:31;19.73;;;11.53;;
36315;SDS011;22343;50.820;2.666;2024-01-11T12:37:18;22.97;;;11.97;;
36315;SDS011;22343;50.820;2.666;2024-01-11T12:40:04;16.40;;;9.80;;
36315;SDS011;22343;50.820;2.666;2024-01-11T12:42:50;24.03;;;12.97;;
36315;SDS011;22343;50.820;2.666;2024-01-11T12:45:35;22.47;;;13.90;;
36315;SDS011;22343;50.820;2.666;2024-01-11T12:48:21;20.80;;;11.87;;
36315;SDS011;22343;50.820;2.666;2024-01-11T12:51:07;24.87;;;13.97;;
36315;SDS011;22343;50.820;2.666;2024-01-11T12:53:55;23.03;;;13.67;;
36315;SDS011;22343;50.820;2.666;2024-01-11T12:56:42;19.60;;;12.07;;
36315;SDS011;22343;50.820;2.666;2024-01-11T12:59:28;17.20;;;10.17;;
36315;SDS011;22343;50.820;2.666;2024-01-11T13:02:13;22.23;;;12.70;;
36315;SDS011;22343;50.820;2.666;2024-01-11T13:05:00;20.10;;;12.40;;
36315;SDS011;22343;50.820;2.666;2024-01-11T13:07:47;22.13;;;13.33;;
36315;SDS011;22343;50.820;2.666;2024-01-11T13:10:36;21.77;;;12.97;;
36315;SDS011;22343;50.820;2.666;2024-01-11T13:13:23;21.53;;;12.47;;
36315;SDS011;22343;50.820;2.666;2024-01-11T13:16:08;22.27;;;13.33;;
36315;SDS011;22343;50.820;2.666;2024-01-11T13:18:58;22.37;;;12.90;;
36315;SDS011;22343;50.820;2.666;2024-01-11T13:21:42;24.13;;;13.47;;
36315;SDS011;22343;50.820;2.666;2024-01-11T13:24:28;16.07;;;9.33;;
36315;SDS011;22343;50.820;2.666;2024-01-11T13:27:15;24.47;;;12.97;;
36315;SDS011;22343;50.820;2.666;2024-01-11T13:30:02;19.80;;;11.53;;
36315;SDS011;22343;50.820;2.666;2024-01-11T13:32:51;18.47;;;10.93;;
36315;SDS011;22343;50.820;2.666;2024-01-11T13:35:39;17.63;;;9.63;;
36315;SDS011;22343;50.820;2.666;2024-01-11T13:38:27;12.73;;;7.60;;
36315;SDS011;22343;50.820;2.666;2024-01-11T13:41:14;10.33;;;6.00;;
36315;SDS011;22343;50.820;2.666;2024-01-11T13:44:01;8.40;;;4.57;;
36315;SDS011;22343;50.820;2.666;2024-01-11T13:46:51;9.30;;;5.23;;
36315;SDS011;22343;50.820;2.666;2024-01-11T13:49:37;6.87;;;4.03;;
36315;SDS011;22343;50.820;2.666;2024-01-11T13:52:23;7.20;;;5.00;;
36315;SDS011;22343;50.820;2.666;2024-01-11T13:55:09;7.37;;;5.00;;
36315;SDS011;22343;50.820;2.666;2024-01-11T13:57:56;6.77;;;4.30;;
36315;SDS011;22343;50.820;2.666;2024-01-11T14:00:41;6.90;;;4.70;;
36315;SDS011;22343;50.820;2.666;2024-01-11T14:03:26;11.67;;;5.40;;
36315;SDS011;22343;50.820;2.666;2024-01-11T14:06:11;13.50;;;7.50;;
36315;SDS011;22343;50.820;2.666;2024-01-11T14:08:58;8.93;;;6.13;;
36315;SDS011;22343;50.820;2.666;2024-01-11T14:11:44;15.37;;;8.73;;
36315;SDS011;22343;50.820;2.666;2024-01-11T14:14:30;13.90;;;8.03;;
36315;SDS011;22343;50.820;2.666;2024-01-11T14:17:16;12.53;;;7.80;;
36315;SDS011;22343;50.820;2.666;2024-01-11T14:20:01;14.37;;;8.73;;
36315;SDS011;22343;50.820;2.666;2024-01-11T14:22:49;17.10;;;9.13;;
36315;SDS011;22343;50.820;2.666;2024-01-11T14:25:35;15.10;;;8.83;;
36315;SDS011;22343;50.820;2.666;2024-01-11T14:28:19;16.63;;;9.43;;
36315;SDS011;22343;50.820;2.666;2024-01-11T14:31:03;17.43;;;11.37;;
36315;SDS011;22343;50.820;2.666;2024-01-11T14:33:52;14.70;;;8.47;;
36315;SDS011;22343;50.820;2.666;2024-01-11T14:36:37;17.27;;;10.40;;
36315;SDS011;22343;50.820;2.666;2024-01-11T14:39:22;30.00;;;9.63;;
36315;SDS011;22343;50.820;2.666;2024-01-11T14:42:09;26.03;;;13.53;;
36315;SDS011;22343;50.820;2.666;2024-01-11T14:44:56;17.93;;;8.93;;
36315;SDS011;22343;50.820;2.666;2024-01-11T14:47:42;22.40;;;14.37;;
36315;SDS011;22343;50.820;2.666;2024-01-11T14:50:30;20.70;;;12.70;;
36315;SDS011;22343;50.820;2.666;2024-01-11T14:53:14;18.73;;;13.33;;
36315;SDS011;22343;50.820;2.666;2024-01-11T14:55:59;16.40;;;10.53;;
36315;SDS011;22343;50.820;2.666;2024-01-11T14:58:44;22.13;;;14.40;;
36315;SDS011;22343;50.820;2.666;2024-01-11T15:01:30;24.03;;;13.87;;
36315;SDS011;22343;50.820;2.666;2024-01-11T15:04:16;25.17;;;13.77;;
36315;SDS011;22343;50.820;2.666;2024-01-11T15:07:02;20.23;;;13.00;;
36315;SDS011;22343;50.820;2.666;2024-01-11T15:09:48;20.83;;;13.00;;
36315;SDS011;22343;50.820;2.666;2024-01-11T15:12:35;22.27;;;14.57;;
36315;SDS011;22343;50.820;2.666;2024-01-11T15:15:20;23.50;;;13.33;;
36315;SDS011;22343;50.820;2.666;2024-01-11T15:18:06;21.00;;;14.00;;
36315;SDS011;22343;50.820;2.666;2024-01-11T15:20:51;22.70;;;15.23;;
36315;SDS011;22343;50.820;2.666;2024-01-11T15:23:37;28.87;;;17.93;;
36315;SDS011;22343;50.820;2.666;2024-01-11T15:26:25;22.60;;;15.60;;
36315;SDS011;22343;50.820;2.666;2024-01-11T15:29:12;25.90;;;16.67;;
36315;SDS011;22343;50.820;2.666;2024-01-11T15:31:57;31.17;;;18.30;;
36315;SDS011;22343;50.820;2.666;2024-01-11T15:34:43;33.20;;;20.17;;
36315;SDS011;22343;50.820;2.666;2024-01-11T15:37:28;27.10;;;17.40;;
36315;SDS011;22343;50.820;2.666;2024-01-11T15:40:14;28.47;;;16.47;;
36315;SDS011;22343;50.820;2.666;2024-01-11T15:42:58;26.50;;;16.60;;
36315;SDS011;22343;50.820;2.666;2024-01-11T15:45:44;29.87;;;17.60;;
36315;SDS011;22343;50.820;2.666;2024-01-11T15:48:30;51.87;;;26.20;;
36315;SDS011;22343;50.820;2.666;2024-01-11T15:51:15;30.63;;;18.90;;
36315;SDS011;22343;50.820;2.666;2024-01-11T15:54:01;39.30;;;23.23;;
36315;SDS011;22343;50.820;2.666;2024-01-11T15:56:47;20.00;;;12.33;;
36315;SDS011;22343;50.820;2.666;2024-01-11T15:59:34;26.10;;;15.70;;
36315;SDS011;22343;50.820;2.666;2024-01-11T16:02:20;23.43;;;14.70;;
36315;SDS011;22343;50.820;2.666;2024-01-11T16:05:07;22.50;;;13.87;;
36315;SDS011;22343;50.820;2.666;2024-01-11T16:07:54;30.67;;;17.67;;
36315;SDS011;22343;50.820;2.666;2024-01-11T16:10:40;41.70;;;26.70;;
36315;SDS011;22343;50.820;2.666;2024-01-11T16:13:26;43.63;;;22.70;;
36315;SDS011;22343;50.820;2.666;2024-01-11T16:16:11;24.63;;;14.93;;
36315;SDS011;22343;50.820;2.666;2024-01-11T16:19:02;22.90;;;13.20;;
36315;SDS011;22343;50.820;2.666;2024-01-11T16:21:47;21.10;;;14.07;;